sensor_id;sensor_type;location;lat;lon;timestamp;pressure;altitude;pressure_sealevel;temperature;humidity
46922;BME280;44039;48.336;10.454;2022-08-30T00:00:25;96148.19;;;15.70;100.00
46922;BME280;44039;48.336;10.454;2022-08-30T00:03:40;96157.72;;;15.50;100.00
46922;BME280;44039;48.336;10.454;2022-08-30T00:06:29;96156.06;;;15.38;100.00
46922;BME280;44039;48.336;10.454;2022-08-30T00:09:16;96152.03;;;15.34;100.00
46922;BME280;44039;48.336;10.454;2022-08-30T00:12:03;96152.09;;;15.43;100.00
46922;BME280;44039;48.336;10.454;2022-08-30T00:14:50;96157.78;;;15.27;100.00
46922;BME280;44039;48.336;10.454;2022-08-30T00:17:37;96152.72;;;15.36;100.00
46922;BME280;44039;48.336;10.454;2022-08-30T00:20:27;96151.91;;;15.24;100.00
46922;BME280;44039;48.336;10.454;2022-08-30T00:23:16;96154.31;;;15.16;100.00
46922;BME280;44039;48.336;10.454;2022-08-30T00:26:05;96156.53;;;14.88;100.00
46922;BME280;44039;48.336;10.454;2022-08-30T00:28:52;96156.25;;;15.02;100.00
46922;BME280;44039;48.336;10.454;2022-08-30T00:31:39;96152.25;;;15.30;100.00
46922;BME280;44039;48.336;10.454;2022-08-30T00:34:26;96159.22;;;15.64;100.00
46922;BME280;44039;48.336;10.454;2022-08-30T00:37:13;96156.81;;;15.61;100.00
46922;BME280;44039;48.336;10.454;2022-08-30T00:40:01;96158.50;;;15.73;100.00
46922;BME280;44039;48.336;10.454;2022-08-30T00:42:48;96151.94;;;15.56;100.00
46922;BME280;44039;48.336;10.454;2022-08-30T00:45:37;96153.97;;;15.52;100.00
46922;BME280;44039;48.336;10.454;2022-08-30T00:48:25;96164.91;;;15.37;100.00
46922;BME280;44039;48.336;10.454;2022-08-30T00:51:13;96162.00;;;15.51;100.00
46922;BME280;44039;48.336;10.454;2022-08-30T00:54:02;96163.19;;;15.04;100.00
46922;BME280;44039;48.336;10.454;2022-08-30T00:56:50;96170.72;;;14.97;100.00
46922;BME280;44039;48.336;10.454;2022-08-30T00:59:39;96169.13;;;15.17;100.00
46922;BME280;44039;48.336;10.454;2022-08-30T01:02:27;96163.94;;;15.38;100.00
46922;BME280;44039;48.336;10.454;2022-08-30T01:05:17;96162.06;;;15.17;100.00
46922;BME280;44039;48.336;10.454;2022-08-30T01:08:05;96151.59;;;15.06;100.00
46922;BME280;44039;48.336;10.454;2022-08-30T01:10:53;96164.50;;;14.87;100.00
46922;BME280;44039;48.336;10.454;2022-08-30T01:13:42;96160.69;;;14.91;100.00
46922;BME280;44039;48.336;10.454;2022-08-30T01:16:31;96161.88;;;14.42;100.00
46922;BME280;44039;48.336;10.454;2022-08-30T01:23:21;96158.31;;;14.54;100.00
46922;BME280;44039;48.336;10.454;2022-08-30T01:25:49;96160.69;;;14.91;100.00
46922;BME280;44039;48.336;10.454;2022-08-30T01:28:39;96156.63;;;14.87;100.00
46922;BME280;44039;48.336;10.454;2022-08-30T01:31:26;96151.84;;;15.03;100.00
46922;BME280;44039;48.336;10.454;2022-08-30T01:34:13;96156.56;;;15.32;100.00
46922;BME280;44039;48.336;10.454;2022-08-30T01:37:00;96154.88;;;15.42;100.00
46922;BME280;44039;48.336;10.454;2022-08-30T01:39:47;96157.44;;;15.53;100.00
46922;BME280;44039;48.336;10.454;2022-08-30T01:42:35;96152.28;;;15.63;100.00
46922;BME280;44039;48.336;10.454;2022-08-30T01:45:22;96153.59;;;15.68;100.00
46922;BME280;44039;48.336;10.454;2022-08-30T01:48:09;96145.22;;;15.63;100.00
46922;BME280;44039;48.336;10.454;2022-08-30T01:50:58;96148.16;;;15.49;100.00
46922;BME280;44039;48.336;10.454;2022-08-30T01:53:46;96148.50;;;15.44;100.00
46922;BME280;44039;48.336;10.454;2022-08-30T01:56:33;96151.91;;;15.24;100.00
46922;BME280;44039;48.336;10.454;2022-08-30T01:59:20;96157.84;;;14.83;100.00
46922;BME280;44039;48.336;10.454;2022-08-30T02:02:07;96160.94;;;14.88;100.00
46922;BME280;44039;48.336;10.454;2022-08-30T02:04:55;96154.47;;;14.92;100.00
46922;BME280;44039;48.336;10.454;2022-08-30T02:07:44;96165.13;;;14.90;100.00
46922;BME280;44039;48.336;10.454;2022-08-30T02:10:31;96160.47;;;14.71;100.00
46922;BME280;44039;48.336;10.454;2022-08-30T02:13:18;96166.78;;;14.46;100.00
46922;BME280;44039;48.336;10.454;2022-08-30T02:16:07;96179.06;;;14.35;100.00
46922;BME280;44039;48.336;10.454;2022-08-30T02:18:54;96177.97;;;14.37;100.00
46922;BME280;44039;48.336;10.454;2022-08-30T02:21:44;96171.81;;;14.72;100.00
46922;BME280;44039;48.336;10.454;2022-08-30T02:24:32;96167.38;;;14.84;100.00
46922;BME280;44039;48.336;10.454;2022-08-30T02:27:19;96165.38;;;14.76;100.00
46922;BME280;44039;48.336;10.454;2022-08-30T02:30:09;96162.00;;;14.63;100.00
46922;BME280;44039;48.336;10.454;2022-08-30T02:32:57;96161.56;;;14.58;100.00
46922;BME280;44039;48.336;10.454;2022-08-30T02:35:44;96156.00;;;14.27;100.00
46922;BME280;44039;48.336;10.454;2022-08-30T02:38:31;96164.56;;;14.18;100.00
46922;BME280;44039;48.336;10.454;2022-08-30T02:41:19;96166.09;;;14.09;100.00
46922;BME280;44039;48.336;10.454;2022-08-30T02:44:07;96163.00;;;14.04;100.00
46922;BME280;44039;48.336;10.454;2022-08-30T02:46:54;96159.31;;;14.18;100.00
46922;BME280;44039;48.336;10.454;2022-08-30T02:49:41;96161.84;;;14.31;100.00
46922;BME280;44039;48.336;10.454;2022-08-30T02:52:28;96166.13;;;14.21;100.00
46922;BME280;44039;48.336;10.454;2022-08-30T02:55:16;96162.25;;;13.91;100.00
46922;BME280;44039;48.336;10.454;2022-08-30T02:58:03;96168.25;;;14.04;100.00
46922;BME280;44039;48.336;10.454;2022-08-30T03:00:50;96163.31;;;13.88;100.00
46922;BME280;44039;48.336;10.454;2022-08-30T03:03:39;96158.56;;;13.58;100.00
46922;BME280;44039;48.336;10.454;2022-08-30T03:06:26;96157.31;;;13.51;100.00
46922;BME280;44039;48.336;10.454;2022-08-30T03:09:13;96156.19;;;13.67;100.00
46922;BME280;44039;48.336;10.454;2022-08-30T03:12:00;96150.97;;;14.13;100.00
46922;BME280;44039;48.336;10.454;2022-08-30T03:14:47;96150.84;;;14.14;100.00
46922;BME280;44039;48.336;10.454;2022-08-30T03:17:34;96147.03;;;14.30;100.00
46922;BME280;44039;48.336;10.454;2022-08-30T03:20:22;96139.91;;;14.43;100.00
46922;BME280;44039;48.336;10.454;2022-08-30T03:23:09;96139.78;;;14.56;100.00
46922;BME280;44039;48.336;10.454;2022-08-30T03:26:09;96133.59;;;14.57;100.00
46922;BME280;44039;48.336;10.454;2022-08-30T03:28:58;96131.91;;;14.56;100.00
46922;BME280;44039;48.336;10.454;2022-08-30T03:31:45;96133.34;;;14.49;100.00
46922;BME280;44039;48.336;10.454;2022-08-30T03:34:39;96132.06;;;14.65;100.00
46922;BME280;44039;48.336;10.454;2022-08-30T03:37:26;96128.94;;;14.83;100.00
46922;BME280;44039;48.336;10.454;2022-08-30T03:40:15;96138.81;;;14.79;100.00
46922;BME280;44039;48.336;10.454;2022-08-30T03:43:04;96144.91;;;14.80;100.00
46922;BME280;44039;48.336;10.454;2022-08-30T03:45:51;96127.75;;;14.76;100.00
46922;BME280;44039;48.336;10.454;2022-08-30T03:48:39;96145.56;;;14.50;100.00
46922;BME280;44039;48.336;10.454;2022-08-30T03:51:26;96142.88;;;14.38;100.00
46922;BME280;44039;48.336;10.454;2022-08-30T03:54:13;96139.03;;;14.31;100.00
46922;BME280;44039;48.336;10.454;2022-08-30T03:57:00;96143.25;;;14.56;100.00
46922;BME280;44039;48.336;10.454;2022-08-30T03:59:47;96145.19;;;14.77;100.00
46922;BME280;44039;48.336;10.454;2022-08-30T04:02:35;96141.25;;;14.60;100.00
46922;BME280;44039;48.336;10.454;2022-08-30T04:05:22;96144.81;;;14.70;100.00
46922;BME280;44039;48.336;10.454;2022-08-30T04:08:09;96140.75;;;14.77;100.00
46922;BME280;44039;48.336;10.454;2022-08-30T04:10:56;96149.44;;;14.44;100.00
46922;BME280;44039;48.336;10.454;2022-08-30T04:13:44;96149.16;;;14.13;100.00
46922;BME280;44039;48.336;10.454;2022-08-30T04:16:31;96158.09;;;14.00;100.00
46922;BME280;44039;48.336;10.454;2022-08-30T04:19:18;96158.91;;;13.89;100.00
46922;BME280;44039;48.336;10.454;2022-08-30T04:22:05;96157.69;;;13.34;100.00
46922;BME280;44039;48.336;10.454;2022-08-30T04:24:52;96162.06;;;13.09;100.00
46922;BME280;44039;48.336;10.454;2022-08-30T04:27:39;96161.22;;;13.22;100.00
46922;BME280;44039;48.336;10.454;2022-08-30T04:30:26;96165.13;;;13.40;100.00
46922;BME280;44039;48.336;10.454;2022-08-30T04:33:15;96158.47;;;13.71;100.00
46922;BME280;44039;48.336;10.454;2022-08-30T04:36:04;96162.53;;;13.75;100.00
46922;BME280;44039;48.336;10.454;2022-08-30T04:38:52;96165.59;;;13.58;100.00
46922;BME280;44039;48.336;10.454;2022-08-30T04:41:39;96166.88;;;13.52;100.00
46922;BME280;44039;48.336;10.454;2022-08-30T04:44:26;96166.16;;;13.50;100.00
46922;BME280;44039;48.336;10.454;2022-08-30T04:47:13;96175.00;;;13.60;100.00
46922;BME280;44039;48.336;10.454;2022-08-30T04:50:00;96172.06;;;13.65;100.00
46922;BME280;44039;48.336;10.454;2022-08-30T04:52:49;96173.22;;;13.61;100.00
46922;BME280;44039;48.336;10.454;2022-08-30T04:55:38;96174.28;;;13.58;100.00
46922;BME280;44039;48.336;10.454;2022-08-30T04:58:26;96173.63;;;13.44;100.00
46922;BME280;44039;48.336;10.454;2022-08-30T05:01:19;96188.72;;;13.64;100.00
46922;BME280;44039;48.336;10.454;2022-08-30T05:04:09;96194.97;;;14.09;100.00
46922;BME280;44039;48.336;10.454;2022-08-30T05:06:56;96198.91;;;14.04;100.00
46922;BME280;44039;48.336;10.454;2022-08-30T05:09:43;96200.41;;;14.41;100.00
46922;BME280;44039;48.336;10.454;2022-08-30T05:12:30;96214.69;;;14.50;100.00
46922;BME280;44039;48.336;10.454;2022-08-30T05:15:18;96210.31;;;14.38;100.00
46922;BME280;44039;48.336;10.454;2022-08-30T05:18:07;96196.56;;;14.81;100.00
46922;BME280;44039;48.336;10.454;2022-08-30T05:21:08;96197.59;;;14.56;100.00
46922;BME280;44039;48.336;10.454;2022-08-30T05:23:57;96198.94;;;14.72;100.00
46922;BME280;44039;48.336;10.454;2022-08-30T05:26:45;96195.94;;;14.77;100.00
46922;BME280;44039;48.336;10.454;2022-08-30T05:29:33;96195.69;;;15.02;100.00
46922;BME280;44039;48.336;10.454;2022-08-30T05:32:20;96202.31;;;15.40;100.00
46922;BME280;44039;48.336;10.454;2022-08-30T05:35:10;96205.88;;;15.62;100.00
46922;BME280;44039;48.336;10.454;2022-08-30T05:37:58;96202.97;;;16.08;100.00
46922;BME280;44039;48.336;10.454;2022-08-30T05:40:45;96199.03;;;15.81;100.00
46922;BME280;44039;48.336;10.454;2022-08-30T05:43:32;96204.44;;;15.69;100.00
46922;BME280;44039;48.336;10.454;2022-08-30T05:46:19;96207.56;;;15.63;100.00
46922;BME280;44039;48.336;10.454;2022-08-30T05:49:07;96212.28;;;15.37;100.00
46922;BME280;44039;48.336;10.454;2022-08-30T05:51:56;96210.91;;;16.18;100.00
46922;BME280;44039;48.336;10.454;2022-08-30T05:54:44;96197.78;;;17.40;100.00
46922;BME280;44039;48.336;10.454;2022-08-30T05:57:32;96207.91;;;17.75;100.00
46922;BME280;44039;48.336;10.454;2022-08-30T06:00:21;96209.72;;;16.43;100.00
46922;BME280;44039;48.336;10.454;2022-08-30T06:03:09;96205.38;;;16.83;100.00
46922;BME280;44039;48.336;10.454;2022-08-30T06:05:59;96196.50;;;18.23;100.00
46922;BME280;44039;48.336;10.454;2022-08-30T06:08:48;96187.00;;;18.40;100.00
46922;BME280;44039;48.336;10.454;2022-08-30T06:11:35;96182.28;;;19.00;100.00
46922;BME280;44039;48.336;10.454;2022-08-30T06:14:23;96190.22;;;18.24;100.00
46922;BME280;44039;48.336;10.454;2022-08-30T06:17:10;96180.66;;;19.44;99.43
46922;BME280;44039;48.336;10.454;2022-08-30T06:19:57;96192.84;;;19.09;100.00
46922;BME280;44039;48.336;10.454;2022-08-30T06:22:45;96192.22;;;19.70;100.00
46922;BME280;44039;48.336;10.454;2022-08-30T06:25:35;96185.34;;;19.95;96.19
46922;BME280;44039;48.336;10.454;2022-08-30T06:28:27;96181.59;;;20.24;89.72
46922;BME280;44039;48.336;10.454;2022-08-30T06:31:17;96201.31;;;18.47;100.00
46922;BME280;44039;48.336;10.454;2022-08-30T06:34:05;96191.59;;;18.47;100.00
46922;BME280;44039;48.336;10.454;2022-08-30T06:36:52;96181.19;;;20.11;97.88
46922;BME280;44039;48.336;10.454;2022-08-30T06:39:39;96169.59;;;21.16;89.69
46922;BME280;44039;48.336;10.454;2022-08-30T06:42:26;96177.50;;;20.30;93.91
46922;BME280;44039;48.336;10.454;2022-08-30T06:45:18;96173.25;;;21.57;86.22
46922;BME280;44039;48.336;10.454;2022-08-30T06:48:06;96186.34;;;20.38;96.51
46922;BME280;44039;48.336;10.454;2022-08-30T06:50:53;96188.53;;;19.54;100.00
46922;BME280;44039;48.336;10.454;2022-08-30T06:53:41;96197.13;;;19.38;100.00
46922;BME280;44039;48.336;10.454;2022-08-30T06:56:29;96185.41;;;20.21;99.61
46922;BME280;44039;48.336;10.454;2022-08-30T06:59:16;96184.88;;;20.62;94.81
46922;BME280;44039;48.336;10.454;2022-08-30T07:02:04;96184.59;;;20.03;100.00
46922;BME280;44039;48.336;10.454;2022-08-30T07:04:52;96181.31;;;19.91;100.00
46922;BME280;44039;48.336;10.454;2022-08-30T07:07:39;96175.72;;;20.12;100.00
46922;BME280;44039;48.336;10.454;2022-08-30T07:10:26;96148.88;;;22.67;84.49
46922;BME280;44039;48.336;10.454;2022-08-30T07:13:13;96165.72;;;21.36;92.34
46922;BME280;44039;48.336;10.454;2022-08-30T07:16:08;96159.03;;;21.90;89.26
46922;BME280;44039;48.336;10.454;2022-08-30T07:18:56;96156.53;;;22.05;90.64
46922;BME280;44039;48.336;10.454;2022-08-30T07:21:44;96136.88;;;23.89;77.85
46922;BME280;44039;48.336;10.454;2022-08-30T07:24:31;96165.66;;;21.70;92.69
46922;BME280;44039;48.336;10.454;2022-08-30T07:27:18;96168.72;;;21.33;97.32
46922;BME280;44039;48.336;10.454;2022-08-30T07:30:06;96156.41;;;22.47;86.66
46922;BME280;44039;48.336;10.454;2022-08-30T07:32:55;96164.06;;;22.26;92.70
46922;BME280;44039;48.336;10.454;2022-08-30T07:35:42;96144.63;;;23.99;81.12
46922;BME280;44039;48.336;10.454;2022-08-30T07:38:29;96157.13;;;23.75;84.07
46922;BME280;44039;48.336;10.454;2022-08-30T07:41:26;96169.38;;;23.62;84.17
46922;BME280;44039;48.336;10.454;2022-08-30T07:44:14;96174.22;;;23.19;89.99
46922;BME280;44039;48.336;10.454;2022-08-30T07:47:01;96176.13;;;23.02;90.64
46922;BME280;44039;48.336;10.454;2022-08-30T07:49:48;96168.47;;;23.38;91.43
46922;BME280;44039;48.336;10.454;2022-08-30T07:52:36;96147.28;;;26.20;70.92
46922;BME280;44039;48.336;10.454;2022-08-30T07:55:28;96158.69;;;26.50;70.12
46922;BME280;44039;48.336;10.454;2022-08-30T07:58:15;96137.19;;;27.34;64.39
46922;BME280;44039;48.336;10.454;2022-08-30T08:01:04;96137.00;;;27.97;57.92
46922;BME280;44039;48.336;10.454;2022-08-30T08:03:52;96148.91;;;27.68;61.43
46922;BME280;44039;48.336;10.454;2022-08-30T08:06:39;96161.13;;;26.73;60.91
46922;BME280;44039;48.336;10.454;2022-08-30T08:09:26;96153.53;;;27.05;62.15
46922;BME280;44039;48.336;10.454;2022-08-30T08:12:13;96148.00;;;28.75;53.24
46922;BME280;44039;48.336;10.454;2022-08-30T08:15:01;96149.22;;;27.04;59.52
46922;BME280;44039;48.336;10.454;2022-08-30T08:17:54;96159.44;;;27.28;61.63
46922;BME280;44039;48.336;10.454;2022-08-30T08:20:41;96156.06;;;27.54;61.85
46922;BME280;44039;48.336;10.454;2022-08-30T08:23:28;96157.38;;;27.72;59.35
46922;BME280;44039;48.336;10.454;2022-08-30T08:26:16;96142.06;;;28.53;53.23
46922;BME280;44039;48.336;10.454;2022-08-30T08:29:04;96149.75;;;27.68;58.30
46922;BME280;44039;48.336;10.454;2022-08-30T08:31:53;96138.94;;;28.49;53.72
46922;BME280;44039;48.336;10.454;2022-08-30T08:34:40;96147.19;;;29.66;52.56
46922;BME280;44039;48.336;10.454;2022-08-30T08:37:27;96144.78;;;27.72;57.85
46922;BME280;44039;48.336;10.454;2022-08-30T08:40:17;96144.28;;;28.83;56.56
46922;BME280;44039;48.336;10.454;2022-08-30T08:43:16;96142.28;;;29.43;52.58
46922;BME280;44039;48.336;10.454;2022-08-30T08:46:30;96135.19;;;28.97;53.34
46922;BME280;44039;48.336;10.454;2022-08-30T08:49:22;96132.09;;;28.80;50.14
46922;BME280;44039;48.336;10.454;2022-08-30T08:52:17;96136.13;;;29.87;48.99
46922;BME280;44039;48.336;10.454;2022-08-30T08:55:24;96145.22;;;27.82;51.78
46922;BME280;44039;48.336;10.454;2022-08-30T08:58:29;96140.41;;;27.64;52.31
46922;BME280;44039;48.336;10.454;2022-08-30T09:01:19;96132.09;;;28.07;51.64
46922;BME280;44039;48.336;10.454;2022-08-30T09:04:12;96145.31;;;28.75;51.53
46922;BME280;44039;48.336;10.454;2022-08-30T09:07:14;96127.81;;;29.88;47.07
46922;BME280;44039;48.336;10.454;2022-08-30T09:10:04;96130.94;;;29.41;47.96
46922;BME280;44039;48.336;10.454;2022-08-30T09:12:51;96129.84;;;28.57;50.57
46922;BME280;44039;48.336;10.454;2022-08-30T09:15:45;96115.00;;;29.90;46.84
46922;BME280;44039;48.336;10.454;2022-08-30T09:18:41;96121.56;;;28.59;49.89
46922;BME280;44039;48.336;10.454;2022-08-30T09:21:31;96131.06;;;28.94;52.38
46922;BME280;44039;48.336;10.454;2022-08-30T09:24:19;96124.63;;;28.03;50.84
46922;BME280;44039;48.336;10.454;2022-08-30T09:27:34;96129.03;;;28.30;52.83
46922;BME280;44039;48.336;10.454;2022-08-30T09:30:26;96122.16;;;29.07;50.30
46922;BME280;44039;48.336;10.454;2022-08-30T09:33:18;96117.44;;;28.76;50.69
46922;BME280;44039;48.336;10.454;2022-08-30T09:36:24;96115.16;;;28.73;50.56
46922;BME280;44039;48.336;10.454;2022-08-30T09:39:25;96108.31;;;28.97;49.42
46922;BME280;44039;48.336;10.454;2022-08-30T09:42:23;96120.50;;;27.32;52.33
46922;BME280;44039;48.336;10.454;2022-08-30T09:45:18;96127.78;;;26.48;56.98
46922;BME280;44039;48.336;10.454;2022-08-30T09:54:21;96105.47;;;26.62;56.45
46922;BME280;44039;48.336;10.454;2022-08-30T09:57:35;96096.94;;;27.14;54.92
46922;BME280;44039;48.336;10.454;2022-08-30T10:00:26;96095.56;;;26.97;53.89
46922;BME280;44039;48.336;10.454;2022-08-30T10:03:32;96098.59;;;26.87;55.04
46922;BME280;44039;48.336;10.454;2022-08-30T10:06:34;96083.66;;;26.72;51.92
46922;BME280;44039;48.336;10.454;2022-08-30T10:15:20;96075.72;;;27.94;49.52
46922;BME280;44039;48.336;10.454;2022-08-30T10:24:09;96050.38;;;30.22;42.35
46922;BME280;44039;48.336;10.454;2022-08-30T10:27:08;96065.59;;;28.29;44.40
46922;BME280;44039;48.336;10.454;2022-08-30T10:30:04;96054.84;;;28.69;43.06
46922;BME280;44039;48.336;10.454;2022-08-30T10:33:02;96053.94;;;29.01;43.71
46922;BME280;44039;48.336;10.454;2022-08-30T10:35:54;96049.25;;;28.77;42.77
46922;BME280;44039;48.336;10.454;2022-08-30T10:38:48;96045.09;;;28.74;42.80
46922;BME280;44039;48.336;10.454;2022-08-30T10:41:45;96046.19;;;28.53;42.75
46922;BME280;44039;48.336;10.454;2022-08-30T10:44:39;96041.63;;;28.61;41.76
46922;BME280;44039;48.336;10.454;2022-08-30T10:47:42;96039.53;;;28.76;39.41
46922;BME280;44039;48.336;10.454;2022-08-30T10:50:43;96035.69;;;29.17;38.13
46922;BME280;44039;48.336;10.454;2022-08-30T10:53:36;96040.63;;;27.95;40.43
46922;BME280;44039;48.336;10.454;2022-08-30T10:56:27;96041.00;;;28.59;39.97
46922;BME280;44039;48.336;10.454;2022-08-30T10:59:16;96049.47;;;28.69;40.83
46922;BME280;44039;48.336;10.454;2022-08-30T11:02:21;96037.59;;;29.54;37.32
46922;BME280;44039;48.336;10.454;2022-08-30T11:14:10;96024.09;;;31.83;34.79
46922;BME280;44039;48.336;10.454;2022-08-30T11:17:00;96046.59;;;28.11;41.63
46922;BME280;44039;48.336;10.454;2022-08-30T11:19:48;96039.19;;;29.62;38.89
46922;BME280;44039;48.336;10.454;2022-08-30T11:22:37;96035.47;;;28.34;40.26
46922;BME280;44039;48.336;10.454;2022-08-30T11:26:00;96032.47;;;30.09;37.90
46922;BME280;44039;48.336;10.454;2022-08-30T11:31:38;96026.09;;;29.97;37.46
46922;BME280;44039;48.336;10.454;2022-08-30T11:37:41;96027.69;;;30.05;37.12
46922;BME280;44039;48.336;10.454;2022-08-30T11:58:47;96023.84;;;30.69;35.91
46922;BME280;44039;48.336;10.454;2022-08-30T12:01:37;96018.91;;;30.41;35.10
46922;BME280;44039;48.336;10.454;2022-08-30T12:04:45;96020.16;;;31.00;35.48
46922;BME280;44039;48.336;10.454;2022-08-30T12:07:59;96035.13;;;29.53;38.93
46922;BME280;44039;48.336;10.454;2022-08-30T12:10:53;96026.22;;;29.84;38.19
46922;BME280;44039;48.336;10.454;2022-08-30T12:16:43;96031.72;;;27.82;39.58
46922;BME280;44039;48.336;10.454;2022-08-30T12:19:50;96022.34;;;28.84;39.46
46922;BME280;44039;48.336;10.454;2022-08-30T12:22:37;96015.19;;;28.51;41.16
46922;BME280;44039;48.336;10.454;2022-08-30T12:25:30;96025.94;;;27.04;43.52
46922;BME280;44039;48.336;10.454;2022-08-30T12:28:23;96017.47;;;27.68;41.09
46922;BME280;44039;48.336;10.454;2022-08-30T12:31:16;96014.34;;;28.57;41.05
46922;BME280;44039;48.336;10.454;2022-08-30T12:34:05;96008.00;;;29.48;36.79
46922;BME280;44039;48.336;10.454;2022-08-30T12:36:58;95997.19;;;30.36;35.58
46922;BME280;44039;48.336;10.454;2022-08-30T12:39:46;95993.72;;;30.54;35.79
46922;BME280;44039;48.336;10.454;2022-08-30T12:42:46;95989.47;;;31.91;33.40
46922;BME280;44039;48.336;10.454;2022-08-30T12:45:37;95996.16;;;28.59;37.53
46922;BME280;44039;48.336;10.454;2022-08-30T12:48:28;95996.34;;;29.92;38.15
46922;BME280;44039;48.336;10.454;2022-08-30T12:51:45;95997.75;;;28.80;38.60
46922;BME280;44039;48.336;10.454;2022-08-30T12:54:33;95996.16;;;29.24;38.20
46922;BME280;44039;48.336;10.454;2022-08-30T13:00:46;96000.72;;;27.39;42.27
46922;BME280;44039;48.336;10.454;2022-08-30T13:03:35;95994.19;;;27.68;41.01
46922;BME280;44039;48.336;10.454;2022-08-30T13:09:39;95981.44;;;30.94;37.25
46922;BME280;44039;48.336;10.454;2022-08-30T13:12:28;95977.63;;;32.16;37.98
46922;BME280;44039;48.336;10.454;2022-08-30T13:15:27;95964.59;;;32.13;34.78
46922;BME280;44039;48.336;10.454;2022-08-30T13:21:28;95975.66;;;28.78;38.80
46922;BME280;44039;48.336;10.454;2022-08-30T13:24:15;95960.06;;;30.20;36.22
46922;BME280;44039;48.336;10.454;2022-08-30T13:27:04;95950.47;;;30.67;35.80
46922;BME280;44039;48.336;10.454;2022-08-30T13:29:57;95963.63;;;29.32;37.57
46922;BME280;44039;48.336;10.454;2022-08-30T13:32:52;95954.50;;;30.58;36.47
46922;BME280;44039;48.336;10.454;2022-08-30T13:35:39;95943.66;;;30.83;38.16
46922;BME280;44039;48.336;10.454;2022-08-30T13:38:26;95934.66;;;30.89;31.63
46922;BME280;44039;48.336;10.454;2022-08-30T13:41:14;95921.44;;;30.07;34.29
46922;BME280;44039;48.336;10.454;2022-08-30T13:44:01;95939.50;;;28.74;37.74
46922;BME280;44039;48.336;10.454;2022-08-30T13:47:01;95937.63;;;28.74;38.63
46922;BME280;44039;48.336;10.454;2022-08-30T13:50:08;95935.84;;;28.62;38.86
46922;BME280;44039;48.336;10.454;2022-08-30T13:52:56;95925.19;;;29.25;37.52
46922;BME280;44039;48.336;10.454;2022-08-30T13:55:43;95930.75;;;28.40;38.14
46922;BME280;44039;48.336;10.454;2022-08-30T13:58:30;95920.31;;;28.64;37.11
46922;BME280;44039;48.336;10.454;2022-08-30T14:01:18;95911.53;;;29.58;37.40
46922;BME280;44039;48.336;10.454;2022-08-30T14:04:05;95901.06;;;31.03;32.93
46922;BME280;44039;48.336;10.454;2022-08-30T14:07:01;95904.28;;;30.08;33.66
46922;BME280;44039;48.336;10.454;2022-08-30T14:10:07;95909.75;;;29.14;36.63
46922;BME280;44039;48.336;10.454;2022-08-30T14:13:14;95898.97;;;29.77;35.43
46922;BME280;44039;48.336;10.454;2022-08-30T14:16:04;95901.88;;;29.50;36.66
46922;BME280;44039;48.336;10.454;2022-08-30T14:19:14;95902.34;;;29.41;36.07
46922;BME280;44039;48.336;10.454;2022-08-30T14:22:01;95888.63;;;29.74;33.63
46922;BME280;44039;48.336;10.454;2022-08-30T14:24:48;95888.16;;;29.83;33.59
46922;BME280;44039;48.336;10.454;2022-08-30T14:27:35;95891.06;;;28.87;34.64
46922;BME280;44039;48.336;10.454;2022-08-30T14:30:23;95892.56;;;29.46;37.45
46922;BME280;44039;48.336;10.454;2022-08-30T14:33:11;95887.16;;;29.21;35.71
46922;BME280;44039;48.336;10.454;2022-08-30T14:35:59;95889.03;;;28.83;37.21
46922;BME280;44039;48.336;10.454;2022-08-30T14:38:46;95890.03;;;28.88;38.43
46922;BME280;44039;48.336;10.454;2022-08-30T14:41:39;95879.03;;;29.59;35.49
46922;BME280;44039;48.336;10.454;2022-08-30T14:44:29;95885.13;;;28.34;38.00
46922;BME280;44039;48.336;10.454;2022-08-30T14:47:36;95880.53;;;28.86;37.17
46922;BME280;44039;48.336;10.454;2022-08-30T14:50:23;95877.50;;;28.17;38.27
46922;BME280;44039;48.336;10.454;2022-08-30T14:53:13;95860.69;;;29.50;35.85
46922;BME280;44039;48.336;10.454;2022-08-30T14:56:06;95866.91;;;28.80;35.41
46922;BME280;44039;48.336;10.454;2022-08-30T14:58:54;95860.56;;;29.38;34.94
46922;BME280;44039;48.336;10.454;2022-08-30T15:01:46;95853.91;;;29.41;33.79
46922;BME280;44039;48.336;10.454;2022-08-30T15:04:33;95864.03;;;29.14;35.68
46922;BME280;44039;48.336;10.454;2022-08-30T15:07:21;95869.19;;;28.45;37.05
46922;BME280;44039;48.336;10.454;2022-08-30T15:10:08;95860.06;;;29.54;36.13
46922;BME280;44039;48.336;10.454;2022-08-30T15:12:56;95857.03;;;28.74;35.32
46922;BME280;44039;48.336;10.454;2022-08-30T15:15:43;95858.06;;;29.36;37.07
46922;BME280;44039;48.336;10.454;2022-08-30T15:18:30;95854.47;;;28.55;36.52
46922;BME280;44039;48.336;10.454;2022-08-30T15:21:38;95857.97;;;28.55;35.80
46922;BME280;44039;48.336;10.454;2022-08-30T15:24:28;95859.72;;;28.23;36.40
46922;BME280;44039;48.336;10.454;2022-08-30T15:27:15;95866.50;;;28.45;37.16
46922;BME280;44039;48.336;10.454;2022-08-30T15:30:04;95865.06;;;28.36;38.13
46922;BME280;44039;48.336;10.454;2022-08-30T15:32:51;95852.00;;;27.82;37.40
46922;BME280;44039;48.336;10.454;2022-08-30T15:35:38;95850.91;;;28.09;37.02
46922;BME280;44039;48.336;10.454;2022-08-30T15:38:25;95858.81;;;27.64;38.36
46922;BME280;44039;48.336;10.454;2022-08-30T15:41:14;95853.09;;;28.25;38.17
46922;BME280;44039;48.336;10.454;2022-08-30T15:44:02;95849.28;;;28.02;38.35
46922;BME280;44039;48.336;10.454;2022-08-30T15:46:49;95851.59;;;27.52;38.84
46922;BME280;44039;48.336;10.454;2022-08-30T15:49:36;95856.34;;;27.50;40.46
46922;BME280;44039;48.336;10.454;2022-08-30T15:52:24;95842.31;;;27.21;39.94